createdAt,value
2018-09-03T00:00:49.344Z,1.93
2018-09-03T00:03:17.679Z,3.10
2018-09-03T00:05:45.980Z,3.17
2018-09-03T00:08:14.272Z,2.27
2018-09-03T00:10:42.555Z,2.13
2018-09-03T00:13:10.845Z,2.77
2018-09-03T00:15:39.248Z,5.70
2018-09-03T00:18:07.532Z,2.23
2018-09-03T00:20:35.827Z,4.13
2018-09-03T00:23:04.171Z,4.97
2018-09-03T00:25:32.487Z,3.57
2018-09-03T00:28:00.807Z,2.10
2018-09-03T00:30:29.095Z,2.57
2018-09-03T00:33:03.841Z,3.57
2018-09-03T00:35:37.390Z,3.37
2018-09-03T00:38:11.088Z,6.40
2018-09-03T00:40:48.259Z,3.40
2018-09-03T00:43:21.891Z,4.27
2018-09-03T00:45:55.432Z,4.50
2018-09-03T00:48:23.871Z,2.57
2018-09-03T00:50:52.225Z,5.03
2018-09-03T00:53:20.501Z,3.07
2018-09-03T00:55:50.623Z,2.57
2018-09-03T00:58:19.111Z,4.53
2018-09-03T01:00:59.129Z,1.90
2018-09-03T01:03:27.436Z,2.50
2018-09-03T01:05:55.711Z,3.03
2018-09-03T01:08:23.988Z,2.47
2018-09-03T01:10:52.239Z,2.00
2018-09-03T01:13:20.545Z,2.03
2018-09-03T01:15:48.807Z,2.00
2018-09-03T01:18:17.079Z,2.10
2018-09-03T01:20:49.331Z,2.60
2018-09-03T01:23:17.808Z,2.87
2018-09-03T01:32:47.332Z,2.87
2018-09-03T01:35:16.603Z,4.37
2018-09-03T01:37:47.679Z,2.70
2018-09-03T01:40:16.626Z,3.17
2018-09-03T01:42:45.639Z,1.90
2018-09-03T01:45:14.627Z,2.33
2018-09-03T01:47:43.806Z,4.07
2018-09-03T01:50:12.938Z,2.87
2018-09-03T01:52:41.798Z,2.17
2018-09-03T01:55:11.035Z,4.77
2018-09-03T01:57:40.024Z,4.23
2018-09-03T02:00:09.165Z,5.27
2018-09-03T02:02:38.362Z,6.17
2018-09-03T02:05:07.467Z,2.67
2018-09-03T02:07:36.713Z,2.40
2018-09-03T02:10:06.085Z,4.43
2018-09-03T02:12:46.166Z,1.97
2018-09-03T02:15:15.546Z,2.73
2018-09-03T02:17:44.970Z,3.03
2018-09-03T02:20:14.503Z,2.47
2018-09-03T02:22:43.575Z,2.70
2018-09-03T02:25:12.746Z,2.67
2018-09-03T02:27:42.039Z,2.60
2018-09-03T02:30:11.143Z,2.80
2018-09-03T02:32:40.779Z,3.20
2018-09-03T02:35:10.118Z,3.63
2018-09-03T02:37:39.566Z,2.40
2018-09-03T02:40:08.651Z,3.07
2018-09-03T02:42:37.804Z,1.93
2018-09-03T02:45:08.001Z,3.57
2018-09-03T02:47:37.325Z,2.50
2018-09-03T02:50:06.782Z,2.43
2018-09-03T02:52:36.469Z,2.40
2018-09-03T02:55:05.634Z,2.57
2018-09-03T02:57:34.950Z,2.30
2018-09-03T03:00:04.111Z,2.33
2018-09-03T03:02:33.270Z,2.27
2018-09-03T03:05:05.980Z,2.40
2018-09-03T03:07:35.100Z,2.10
2018-09-03T03:10:04.202Z,2.20
2018-09-03T03:12:33.280Z,2.37
2018-09-03T03:15:02.446Z,2.80
2018-09-03T03:17:31.443Z,2.40
2018-09-03T03:20:00.280Z,2.20
2018-09-03T03:22:29.542Z,2.30
2018-09-03T03:24:58.627Z,2.50
2018-09-03T03:27:27.523Z,2.30
2018-09-03T03:29:56.542Z,2.47
2018-09-03T03:32:41.200Z,2.43
2018-09-03T03:35:11.423Z,2.63
2018-09-03T03:37:44.471Z,5.63
2018-09-03T03:40:13.675Z,3.60
2018-09-03T03:42:42.910Z,2.80
2018-09-03T03:45:12.039Z,2.60
2018-09-03T03:47:41.142Z,3.17
2018-09-03T03:50:10.344Z,7.80
2018-09-03T03:52:39.685Z,2.53
2018-09-03T03:55:09.186Z,3.00
2018-09-03T03:57:38.052Z,2.40
2018-09-03T04:00:13.156Z,2.40
2018-09-03T04:02:42.600Z,2.13
2018-09-03T04:05:12.098Z,4.17
2018-09-03T04:07:41.337Z,3.10
2018-09-03T04:10:10.502Z,2.47
2018-09-03T04:12:44.209Z,4.80
2018-09-03T04:15:13.489Z,4.23
2018-09-03T04:17:42.487Z,3.00
2018-09-03T04:20:11.746Z,9.10
2018-09-03T04:22:45.168Z,3.80
2018-09-03T04:25:14.786Z,8.70
2018-09-03T04:27:44.011Z,3.33
2018-09-03T04:30:13.249Z,2.37
2018-09-03T04:32:42.393Z,7.03
2018-09-03T04:35:11.594Z,9.87
2018-09-03T04:37:40.691Z,8.50
2018-09-03T04:40:10.071Z,2.53
2018-09-03T04:42:39.380Z,2.40
2018-09-03T04:45:08.423Z,2.73
2018-09-03T04:47:37.544Z,2.77
2018-09-03T04:50:06.763Z,2.47
2018-09-03T04:52:35.643Z,2.70
2018-09-03T04:55:04.938Z,3.87
2018-09-03T04:57:33.960Z,2.57
2018-09-03T05:00:03.409Z,2.50
2018-09-03T05:02:32.391Z,2.60
2018-09-03T05:05:02.552Z,2.43
2018-09-03T05:07:31.644Z,2.67
2018-09-03T05:10:00.564Z,3.17
2018-09-03T05:12:29.954Z,3.07
2018-09-03T05:14:59.100Z,4.63
2018-09-03T05:17:27.970Z,4.00
2018-09-03T05:19:57.814Z,4.40
2018-09-03T05:22:26.916Z,9.87
2018-09-03T05:24:56.019Z,4.57
2018-09-03T05:27:24.892Z,6.60
2018-09-03T05:29:54.038Z,3.83
2018-09-03T05:32:24.974Z,2.60
2018-09-03T05:35:05.725Z,3.27
2018-09-03T05:37:34.925Z,8.10
2018-09-03T05:40:03.927Z,8.20
2018-09-03T05:42:33.084Z,3.87
2018-09-03T05:45:02.304Z,6.37
2018-09-03T05:47:31.338Z,6.47
2018-09-03T05:50:00.378Z,3.73
2018-09-03T05:52:29.464Z,6.33
2018-09-03T05:54:58.496Z,4.47
2018-09-03T05:57:27.265Z,6.37
2018-09-03T05:59:56.500Z,2.47
2018-09-03T06:02:25.608Z,2.93
2018-09-03T06:04:54.890Z,2.30
2018-09-03T06:07:24.108Z,4.37
2018-09-03T06:09:53.297Z,2.80
2018-09-03T06:12:22.706Z,2.33
2018-09-03T06:14:51.874Z,2.50
2018-09-03T06:17:21.087Z,4.27
2018-09-03T06:19:50.299Z,7.07
2018-09-03T06:22:19.428Z,4.83
2018-09-03T06:24:48.673Z,2.10
2018-09-03T06:27:17.856Z,2.97
2018-09-03T06:29:47.090Z,8.93
2018-09-03T06:32:16.383Z,5.17
2018-09-03T06:34:45.590Z,4.67
2018-09-03T06:37:14.809Z,9.07
2018-09-03T06:39:44.070Z,5.40
2018-09-03T06:42:13.333Z,6.77
2018-09-03T06:44:42.575Z,7.90
2018-09-03T06:47:11.881Z,6.17
2018-09-03T06:49:41.053Z,7.83
2018-09-03T06:52:10.480Z,11.57
2018-09-03T06:54:39.427Z,9.23
2018-09-03T06:57:08.512Z,7.27
2018-09-03T06:59:37.495Z,10.43
2018-09-03T07:02:06.969Z,6.27
2018-09-03T07:04:36.122Z,8.73
2018-09-03T07:07:05.312Z,7.77
2018-09-03T07:09:34.326Z,8.90
2018-09-03T07:12:03.428Z,8.43
2018-09-03T07:14:32.310Z,9.23
2018-09-03T07:17:01.535Z,6.50
2018-09-03T07:19:30.656Z,8.30
2018-09-03T07:22:02.967Z,5.73
2018-09-03T07:24:32.533Z,11.07
2018-09-03T07:27:01.896Z,8.97
2018-09-03T07:29:31.104Z,6.90
2018-09-03T07:32:00.381Z,7.20
2018-09-03T07:34:29.555Z,9.33
2018-09-03T07:36:58.896Z,6.83
2018-09-03T07:39:27.850Z,7.73
2018-09-03T07:41:56.892Z,5.87
2018-09-03T07:44:25.954Z,7.70
2018-09-03T07:46:54.982Z,8.03
2018-09-03T07:49:24.079Z,7.57
2018-09-03T07:51:53.133Z,7.07
2018-09-03T07:54:22.382Z,8.00
2018-09-03T07:56:51.274Z,5.13
2018-09-03T07:59:20.162Z,7.17
2018-09-03T08:01:49.070Z,5.40
2018-09-03T08:04:18.149Z,7.03
2018-09-03T08:06:47.142Z,9.10
2018-09-03T08:09:16.121Z,5.93
2018-09-03T08:11:45.134Z,7.03
2018-09-03T08:14:14.219Z,5.43
2018-09-03T08:16:43.396Z,5.13
2018-09-03T08:19:12.622Z,9.00
2018-09-03T08:21:41.784Z,8.43
2018-09-03T08:24:11.022Z,8.03
2018-09-03T08:26:41.039Z,9.73
2018-09-03T08:29:10.229Z,4.90
2018-09-03T08:31:39.326Z,5.13
2018-09-03T08:34:08.281Z,6.30
2018-09-03T08:36:37.332Z,6.63
2018-09-03T08:39:07.168Z,5.70
2018-09-03T08:41:36.497Z,8.17
2018-09-03T08:44:05.591Z,8.53
2018-09-03T08:46:34.516Z,7.80
2018-09-03T08:49:03.378Z,5.67
2018-09-03T08:51:32.493Z,4.57
2018-09-03T08:54:01.503Z,7.77
2018-09-03T08:56:30.680Z,8.40
2018-09-03T08:58:59.660Z,6.13
2018-09-03T09:01:28.587Z,5.65
2018-09-03T09:03:57.569Z,7.50
2018-09-03T09:06:26.532Z,5.53
2018-09-03T09:08:55.464Z,11.18
2018-09-03T09:11:24.333Z,10.40
2018-09-03T09:13:53.435Z,9.28
2018-09-03T09:16:22.506Z,4.33
2018-09-03T09:18:51.307Z,7.90
2018-09-03T09:21:20.296Z,6.85
2018-09-03T09:23:49.106Z,9.03
2018-09-03T09:26:18.182Z,6.72
2018-09-03T09:28:47.051Z,6.12
2018-09-03T09:31:16.104Z,7.80
2018-09-03T09:33:45.301Z,6.12
2018-09-03T09:36:14.286Z,5.50
2018-09-03T09:38:43.240Z,13.08
2018-09-03T09:41:12.245Z,7.42
2018-09-03T09:43:41.340Z,6.30
2018-09-03T09:46:10.369Z,11.55
2018-09-03T09:48:39.382Z,7.08
2018-09-03T09:51:08.479Z,8.28
2018-09-03T09:53:37.452Z,12.07
2018-09-03T09:56:06.540Z,8.95
2018-09-03T09:58:35.638Z,6.72
2018-09-03T10:01:10.037Z,5.97
2018-09-03T10:03:38.931Z,9.83
2018-09-03T10:06:07.952Z,5.62
2018-09-03T10:08:36.918Z,9.28
2018-09-03T10:11:06.530Z,8.35
2018-09-03T10:13:36.018Z,6.95
2018-09-03T10:16:05.107Z,10.98
2018-09-03T10:18:34.321Z,7.65
2018-09-03T10:21:03.428Z,9.03
2018-09-03T10:23:32.442Z,12.00
2018-09-03T10:26:01.639Z,9.58
2018-09-03T10:28:30.793Z,12.25
2018-09-03T10:30:59.799Z,5.67
2018-09-03T10:33:28.745Z,12.00
2018-09-03T10:35:57.669Z,8.45
2018-09-03T10:38:28.022Z,6.28
2018-09-03T10:40:57.041Z,7.78
2018-09-03T10:43:26.153Z,8.95
2018-09-03T10:45:55.257Z,5.50
2018-09-03T10:48:24.288Z,7.97
2018-09-03T10:50:53.701Z,10.68
2018-09-03T10:53:22.741Z,7.80
2018-09-03T10:55:51.778Z,11.00
2018-09-03T10:58:22.932Z,8.15
2018-09-03T11:00:52.133Z,7.65
2018-09-03T11:03:21.112Z,10.13
2018-09-03T11:05:50.039Z,7.80
2018-09-03T11:08:19.252Z,8.68
2018-09-03T11:10:48.112Z,10.80
2018-09-03T11:13:17.004Z,8.65
2018-09-03T11:15:45.981Z,8.85
2018-09-03T11:18:18.697Z,8.85
2018-09-03T11:20:47.805Z,9.48
2018-09-03T11:23:17.054Z,8.88
2018-09-03T11:25:46.068Z,9.35
2018-09-03T11:28:14.962Z,10.10
2018-09-03T11:30:45.979Z,10.00
2018-09-03T11:33:15.012Z,7.83
2018-09-03T11:35:44.215Z,9.03
2018-09-03T11:38:13.210Z,9.73
2018-09-03T11:40:42.183Z,9.90
2018-09-03T11:43:11.089Z,9.03
2018-09-03T11:45:40.184Z,8.13
2018-09-03T11:48:09.085Z,7.70
2018-09-03T11:50:38.170Z,6.92
2018-09-03T11:53:07.156Z,8.08
2018-09-03T11:55:36.566Z,8.95
2018-09-03T11:58:05.792Z,8.30
2018-09-03T12:00:34.878Z,8.08
2018-09-03T12:03:03.832Z,13.38
2018-09-03T12:05:32.740Z,8.05
2018-09-03T12:08:01.700Z,10.05
2018-09-03T12:10:30.692Z,10.95
2018-09-03T12:12:59.935Z,11.35
2018-09-03T12:15:40.178Z,11.95
2018-09-03T12:18:09.132Z,11.22
2018-09-03T12:20:38.126Z,9.75
2018-09-03T12:23:07.566Z,10.38
2018-09-03T12:25:36.426Z,7.67
2018-09-03T12:28:05.431Z,7.42
2018-09-03T12:30:34.546Z,10.30
2018-09-03T12:33:03.487Z,10.38
2018-09-03T12:35:32.514Z,9.80
2018-09-03T12:38:01.312Z,11.73
2018-09-03T12:40:30.234Z,14.50
2018-09-03T12:42:59.423Z,8.35
2018-09-03T12:45:34.569Z,9.93
2018-09-03T12:48:03.432Z,10.70
2018-09-03T12:50:32.283Z,9.38
2018-09-03T12:53:01.222Z,8.25
2018-09-03T12:55:30.002Z,10.20
2018-09-03T12:57:59.180Z,8.98
2018-09-03T13:00:28.081Z,8.20
2018-09-03T13:02:57.173Z,9.70
2018-09-03T13:05:26.211Z,11.20
2018-09-03T13:07:57.165Z,8.93
2018-09-03T13:10:26.098Z,10.75
2018-09-03T13:12:55.099Z,8.65
2018-09-03T13:15:23.933Z,13.83
2018-09-03T13:17:52.676Z,10.78
2018-09-03T13:20:21.464Z,8.60
2018-09-03T13:22:50.592Z,10.18
2018-09-03T13:25:19.432Z,9.03
2018-09-03T13:27:49.401Z,9.55
2018-09-03T13:30:18.598Z,10.30
2018-09-03T13:32:47.456Z,8.58
2018-09-03T13:35:16.463Z,10.05
2018-09-03T13:37:45.445Z,7.55
2018-09-03T13:40:14.369Z,10.08
2018-09-03T13:42:43.530Z,7.20
2018-09-03T13:45:12.533Z,10.08
2018-09-03T13:47:41.408Z,7.67
2018-09-03T13:50:11.203Z,10.65
2018-09-03T13:52:45.874Z,9.45
2018-09-03T13:55:14.744Z,10.58
2018-09-03T13:57:43.737Z,12.40
2018-09-03T14:00:15.106Z,9.55
2018-09-03T14:03:11.141Z,9.38
2018-09-03T14:05:40.115Z,10.40
2018-09-03T14:08:09.222Z,9.13
2018-09-03T14:10:38.220Z,14.68
2018-09-03T14:13:07.128Z,10.25
2018-09-03T14:15:38.651Z,14.15
2018-09-03T14:18:07.747Z,12.63
2018-09-03T14:20:36.729Z,8.78
2018-09-03T14:23:06.035Z,10.23
2018-09-03T14:25:35.166Z,9.28
2018-09-03T14:28:04.575Z,8.85
2018-09-03T14:30:33.536Z,8.60
2018-09-03T14:33:02.855Z,13.65
2018-09-03T14:35:31.968Z,11.38
2018-09-03T14:38:00.955Z,8.35
2018-09-03T14:40:30.116Z,8.33
2018-09-03T14:42:59.245Z,9.20
2018-09-03T14:45:28.216Z,11.38
2018-09-03T14:47:57.151Z,11.33
2018-09-03T14:50:30.423Z,9.28
2018-09-03T14:52:59.383Z,9.85
2018-09-03T14:55:28.412Z,10.38
2018-09-03T14:57:57.392Z,11.88
2018-09-03T15:00:26.564Z,8.18
2018-09-03T15:02:55.600Z,9.48
2018-09-03T15:05:24.556Z,9.68
2018-09-03T15:07:53.707Z,7.62
2018-09-03T15:10:22.667Z,8.93
2018-09-03T15:12:51.731Z,8.60
2018-09-03T15:15:20.641Z,8.53
2018-09-03T15:17:49.533Z,8.38
2018-09-03T15:20:18.539Z,8.50
2018-09-03T15:22:47.551Z,10.18
2018-09-03T15:25:16.600Z,11.48
2018-09-03T15:27:45.470Z,8.68
2018-09-03T15:30:14.396Z,9.00
2018-09-03T15:32:43.313Z,8.75
2018-09-03T15:35:12.602Z,7.47
2018-09-03T15:37:41.581Z,10.93
2018-09-03T15:40:10.460Z,7.80
2018-09-03T15:42:39.600Z,7.85
2018-09-03T15:45:09.068Z,8.83
2018-09-03T15:47:38.361Z,8.80
2018-09-03T15:50:07.462Z,10.70
2018-09-03T15:52:36.701Z,7.00
2018-09-03T15:55:05.686Z,11.73
2018-09-03T15:57:38.431Z,10.88
2018-09-03T16:00:08.616Z,8.50
2018-09-03T16:02:37.913Z,7.35
2018-09-03T16:05:07.046Z,7.95
2018-09-03T16:07:50.295Z,9.25
2018-09-03T16:10:19.199Z,9.00
2018-09-03T16:12:48.072Z,10.70
2018-09-03T16:15:17.112Z,8.33
2018-09-03T16:17:46.124Z,9.33
2018-09-03T16:20:15.088Z,7.50
2018-09-03T16:22:44.070Z,9.53
2018-09-03T16:25:20.638Z,8.43
2018-09-03T16:27:49.720Z,7.90
2018-09-03T16:30:18.711Z,7.53
2018-09-03T16:32:47.814Z,7.83
2018-09-03T16:35:17.036Z,8.08
2018-09-03T16:37:46.140Z,7.53
2018-09-03T16:40:16.615Z,7.97
2018-09-03T16:42:45.637Z,11.38
2018-09-03T16:45:20.592Z,9.83
2018-09-03T16:47:49.573Z,8.93
2018-09-03T16:50:18.574Z,10.48
2018-09-03T16:52:50.666Z,11.28
2018-09-03T16:55:19.782Z,7.53
2018-09-03T16:57:48.785Z,9.10
2018-09-03T17:00:18.094Z,7.67
2018-09-03T17:02:46.976Z,9.10
2018-09-03T17:05:17.349Z,8.95
2018-09-03T17:07:47.531Z,7.40
2018-09-03T17:10:16.737Z,9.68
2018-09-03T17:12:45.640Z,9.58
2018-09-03T17:15:18.567Z,8.18
2018-09-03T17:17:47.508Z,7.65
2018-09-03T17:20:16.790Z,8.83
2018-09-03T17:22:45.934Z,8.60
2018-09-03T17:25:14.686Z,9.95
2018-09-03T17:27:43.490Z,8.68
2018-09-03T17:30:13.493Z,7.62
2018-09-03T17:32:42.523Z,6.83
2018-09-03T17:35:11.395Z,7.83
2018-09-03T17:37:40.367Z,7.60
2018-09-03T17:40:09.183Z,9.63
2018-09-03T17:42:38.154Z,8.50
2018-09-03T17:45:08.298Z,7.28
2018-09-03T17:47:37.962Z,7.40
2018-09-03T17:50:07.222Z,9.38
2018-09-03T17:52:36.070Z,7.35
2018-09-03T17:55:05.161Z,7.28
2018-09-03T17:57:41.596Z,7.87
2018-09-03T18:00:18.130Z,8.13
2018-09-03T18:02:48.092Z,9.10
2018-09-03T18:05:17.359Z,8.13
2018-09-03T18:07:46.343Z,8.70
2018-09-03T18:10:16.335Z,8.35
2018-09-03T18:12:45.554Z,9.33
2018-09-03T18:15:14.623Z,8.78
2018-09-03T18:17:47.665Z,9.33
2018-09-03T18:20:16.848Z,9.00
2018-09-03T18:22:46.016Z,11.60
2018-09-03T18:25:14.940Z,7.62
2018-09-03T18:27:44.126Z,8.55
2018-09-03T18:30:13.680Z,8.00
2018-09-03T18:32:49.501Z,8.18
2018-09-03T18:35:18.460Z,7.40
2018-09-03T18:37:47.453Z,8.05
2018-09-03T18:40:16.472Z,7.87
2018-09-03T18:42:45.539Z,8.43
2018-09-03T18:45:14.753Z,8.08
2018-09-03T18:47:43.875Z,10.27
2018-09-03T18:50:13.990Z,8.88
2018-09-03T18:52:43.383Z,9.83
2018-09-03T18:55:12.286Z,8.90
2018-09-03T18:57:41.500Z,10.93
2018-09-03T19:00:10.661Z,11.83
2018-09-03T19:02:39.966Z,9.10
2018-09-03T19:05:10.162Z,8.87
2018-09-03T19:07:39.280Z,12.33
2018-09-03T19:10:08.369Z,9.60
2018-09-03T19:12:37.562Z,8.97
2018-09-03T19:15:07.352Z,7.70
2018-09-03T19:17:37.598Z,11.33
2018-09-03T19:20:06.914Z,16.87
2018-09-03T19:22:35.930Z,12.60
2018-09-03T19:25:05.060Z,10.10
2018-09-03T19:27:34.185Z,8.20
2018-09-03T19:30:03.277Z,8.73
2018-09-03T19:32:32.297Z,12.13
2018-09-03T19:35:01.165Z,8.83
2018-09-03T19:37:30.297Z,10.60
2018-09-03T19:39:59.417Z,9.60
2018-09-03T19:42:28.421Z,11.07
2018-09-03T19:44:57.787Z,11.17
2018-09-03T19:47:32.507Z,7.80
2018-09-03T19:50:01.372Z,10.07
2018-09-03T19:52:30.365Z,9.67
2018-09-03T19:54:59.499Z,7.60
2018-09-03T19:57:28.332Z,7.97
2018-09-03T19:59:57.420Z,8.60
2018-09-03T20:02:26.634Z,7.80
2018-09-03T20:05:09.074Z,7.30
2018-09-03T20:07:38.086Z,11.47
2018-09-03T20:10:07.484Z,9.33
2018-09-03T20:12:36.311Z,7.97
2018-09-03T20:15:05.626Z,8.23
2018-09-03T20:17:34.674Z,12.67
2018-09-03T20:20:03.614Z,7.63
2018-09-03T20:22:35.820Z,9.57
2018-09-03T20:25:04.996Z,8.20
2018-09-03T20:27:34.033Z,12.27
2018-09-03T20:30:03.091Z,8.03
2018-09-03T20:32:32.178Z,8.10
2018-09-03T20:35:01.507Z,8.43
2018-09-03T20:37:30.578Z,7.67
2018-09-03T20:39:59.675Z,9.77
2018-09-03T20:42:28.576Z,8.37
2018-09-03T20:44:57.703Z,13.53
2018-09-03T20:47:31.966Z,11.13
2018-09-03T20:50:01.074Z,7.23
2018-09-03T20:52:29.886Z,7.53
2018-09-03T20:54:58.793Z,10.50
2018-09-03T20:57:33.526Z,14.57
2018-09-03T21:00:03.108Z,8.13
2018-09-03T21:02:32.089Z,8.07
2018-09-03T21:05:00.850Z,11.10
2018-09-03T21:10:30.424Z,9.13
2018-09-03T21:12:59.203Z,15.03
2018-09-03T21:15:29.321Z,7.70
2018-09-03T21:17:58.108Z,6.73
2018-09-03T21:20:27.238Z,11.43
2018-09-03T21:22:56.328Z,9.30
2018-09-03T21:25:25.291Z,6.07
2018-09-03T21:27:54.480Z,7.13
2018-09-03T21:30:42.443Z,9.57
2018-09-03T21:33:16.951Z,10.53
2018-09-03T21:35:45.867Z,9.73
2018-09-03T21:38:14.814Z,7.83
2018-09-03T21:40:43.866Z,10.30
2018-09-03T21:43:12.861Z,9.33
2018-09-03T21:45:41.831Z,6.03
2018-09-03T21:48:10.797Z,5.17
2018-09-03T21:50:39.801Z,6.47
2018-09-03T21:53:08.703Z,8.37
2018-09-03T21:55:37.776Z,6.83
2018-09-03T21:58:06.885Z,7.83
2018-09-03T22:00:37.098Z,7.13
2018-09-03T22:03:06.781Z,7.87
2018-09-03T22:05:35.847Z,5.57
2018-09-03T22:08:05.131Z,5.57
2018-09-03T22:10:34.037Z,9.03
2018-09-03T22:13:03.102Z,8.33
2018-09-03T22:15:31.872Z,4.93
2018-09-03T22:18:00.782Z,6.20
2018-09-03T22:20:29.696Z,9.07
2018-09-03T22:22:58.593Z,7.87
2018-09-03T22:25:27.877Z,6.37
2018-09-03T22:27:56.852Z,7.27
2018-09-03T22:30:26.063Z,11.87
2018-09-03T22:32:55.063Z,6.77
2018-09-03T22:35:24.059Z,5.80
2018-09-03T22:37:53.064Z,5.30
2018-09-03T22:40:22.013Z,7.73
2018-09-03T22:42:51.037Z,12.27
2018-09-03T22:45:20.255Z,5.07
2018-09-03T22:47:49.248Z,6.37
2018-09-03T22:50:18.333Z,7.77
2018-09-03T22:52:47.318Z,10.50
2018-09-03T22:55:16.311Z,6.67
2018-09-03T22:57:45.299Z,6.03
2018-09-03T23:00:14.327Z,6.13
2018-09-03T23:02:46.132Z,11.40
2018-09-03T23:05:15.237Z,5.83
2018-09-03T23:07:44.164Z,7.27
2018-09-03T23:10:13.358Z,4.33
2018-09-03T23:12:44.296Z,5.77
2018-09-03T23:15:13.373Z,5.07
2018-09-03T23:17:42.230Z,7.30
2018-09-03T23:20:11.193Z,6.47
2018-09-03T23:22:40.429Z,6.67
2018-09-03T23:25:09.336Z,8.03
2018-09-03T23:27:38.437Z,7.57
2018-09-03T23:30:07.413Z,11.10
2018-09-03T23:32:36.522Z,7.80
2018-09-03T23:35:05.820Z,9.00
2018-09-03T23:37:35.039Z,6.90
2018-09-03T23:40:03.898Z,9.07
2018-09-03T23:42:32.934Z,5.50
2018-09-03T23:45:01.889Z,7.77
2018-09-03T23:47:30.810Z,7.07
2018-09-03T23:50:00.006Z,8.37
2018-09-03T23:52:28.987Z,5.70
2018-09-03T23:54:57.976Z,5.63
2018-09-03T23:57:36.715Z,7.40
